createdAt,value
2022-11-13T00:00:15.626Z,36.30
2022-11-13T00:03:04.028Z,34.73
2022-11-13T00:06:01.067Z,35.20
2022-11-13T00:08:48.873Z,33.30
2022-11-13T00:11:35.910Z,30.57
2022-11-13T00:14:22.917Z,36.97
2022-11-13T00:17:11.331Z,32.90
2022-11-13T00:19:59.836Z,32.53
2022-11-13T00:22:47.181Z,34.90
2022-11-13T00:25:36.968Z,38.30
2022-11-13T00:28:24.428Z,37.23
2022-11-13T00:31:14.498Z,32.63
2022-11-13T00:34:19.668Z,35.53
2022-11-13T00:37:10.120Z,30.10
2022-11-13T00:39:59.720Z,30.10
2022-11-13T00:42:47.016Z,32.60
2022-11-13T00:45:34.069Z,32.27
2022-11-13T00:48:21.800Z,30.50
2022-11-13T00:51:09.221Z,33.07
2022-11-13T00:53:58.068Z,29.83
2022-11-13T00:56:45.464Z,24.73
2022-11-13T00:59:32.689Z,32.97
2022-11-13T01:02:19.892Z,30.93
2022-11-13T01:05:08.797Z,28.10
2022-11-13T01:07:56.202Z,28.80
2022-11-13T01:10:53.058Z,32.40
2022-11-13T01:13:41.883Z,33.00
2022-11-13T01:16:30.298Z,25.67
2022-11-13T01:19:17.700Z,26.40
2022-11-13T01:22:04.658Z,24.93
2022-11-13T01:24:52.040Z,26.00
2022-11-13T01:27:40.980Z,24.57
2022-11-13T01:30:28.892Z,24.67
2022-11-13T01:33:15.902Z,27.70
2022-11-13T01:36:04.505Z,22.63
2022-11-13T01:38:52.307Z,25.20
2022-11-13T01:41:39.964Z,25.23
2022-11-13T01:44:47.801Z,25.47
2022-11-13T01:47:34.905Z,27.40
2022-11-13T01:50:22.341Z,24.83
2022-11-13T01:53:10.441Z,25.73
2022-11-13T01:55:57.899Z,24.60
2022-11-13T01:58:50.311Z,26.77
2022-11-13T02:01:38.942Z,23.67
2022-11-13T02:04:27.342Z,24.20
2022-11-13T02:07:17.278Z,25.17
2022-11-13T02:10:05.685Z,21.83
2022-11-13T02:12:54.090Z,26.60
2022-11-13T02:15:43.420Z,22.10
2022-11-13T02:18:33.479Z,24.13
2022-11-13T02:21:33.185Z,25.03
2022-11-13T02:24:32.992Z,26.97
2022-11-13T02:27:28.639Z,23.87
2022-11-13T02:30:25.339Z,20.30
2022-11-13T02:33:25.605Z,22.87
2022-11-13T02:36:14.527Z,23.43
2022-11-13T02:39:07.516Z,22.43
2022-11-13T02:41:56.418Z,22.00
2022-11-13T02:44:43.621Z,19.80
2022-11-13T02:47:31.810Z,22.37
2022-11-13T02:50:20.093Z,26.20
2022-11-13T02:53:08.496Z,20.90
2022-11-13T02:55:55.438Z,25.80
2022-11-13T02:58:44.107Z,22.73
2022-11-13T03:01:33.502Z,20.20
2022-11-13T03:04:20.548Z,23.70
2022-11-13T03:07:07.594Z,20.27
2022-11-13T03:09:55.357Z,16.53
2022-11-13T03:12:42.744Z,21.17
2022-11-13T03:15:31.456Z,17.77
2022-11-13T03:18:18.730Z,19.00
2022-11-13T03:21:11.904Z,21.33
2022-11-13T03:23:59.585Z,18.93
2022-11-13T03:26:47.312Z,15.70
2022-11-13T03:29:36.351Z,15.87
2022-11-13T03:32:24.914Z,19.23
2022-11-13T03:35:11.978Z,21.30
2022-11-13T03:37:58.916Z,17.20
2022-11-13T03:40:46.202Z,18.10
2022-11-13T03:43:32.983Z,19.03
2022-11-13T03:46:20.352Z,19.63
2022-11-13T03:49:09.174Z,17.47
2022-11-13T03:51:56.003Z,20.47
2022-11-13T03:54:45.265Z,20.30
2022-11-13T03:57:32.296Z,13.57
2022-11-13T04:00:19.948Z,17.17
2022-11-13T04:03:07.019Z,17.50
2022-11-13T04:05:55.373Z,13.13
2022-11-13T04:08:42.675Z,14.63
2022-11-13T04:11:32.237Z,19.73
2022-11-13T04:14:19.410Z,19.50
2022-11-13T04:17:06.669Z,21.13
2022-11-13T04:19:53.979Z,18.87
2022-11-13T04:22:42.415Z,20.67
2022-11-13T04:25:29.453Z,14.50
2022-11-13T04:28:16.477Z,18.00
2022-11-13T04:31:03.434Z,17.00
2022-11-13T04:33:50.339Z,20.73
2022-11-13T04:36:37.353Z,17.90
2022-11-13T04:39:25.599Z,19.50
2022-11-13T04:42:42.675Z,18.03
2022-11-13T04:45:30.103Z,16.10
2022-11-13T04:48:17.076Z,15.57
2022-11-13T04:51:04.316Z,19.73
2022-11-13T04:53:54.128Z,17.30
2022-11-13T04:56:42.689Z,16.87
2022-11-13T04:59:29.645Z,18.80
2022-11-13T05:02:17.111Z,17.83
2022-11-13T05:05:05.434Z,21.77
2022-11-13T05:07:55.919Z,15.30
2022-11-13T05:10:42.884Z,17.37
2022-11-13T05:13:34.447Z,19.67
2022-11-13T05:16:21.818Z,16.50
2022-11-13T05:19:09.226Z,17.50
2022-11-13T05:21:56.583Z,16.40
2022-11-13T05:24:43.659Z,18.60
2022-11-13T05:27:31.583Z,20.80
2022-11-13T05:30:20.231Z,20.50
2022-11-13T05:33:07.381Z,16.77
2022-11-13T05:35:54.627Z,15.40
2022-11-13T05:38:42.699Z,17.80
2022-11-13T05:41:30.045Z,16.37
2022-11-13T05:44:17.179Z,17.77
2022-11-13T05:47:05.846Z,19.00
2022-11-13T05:49:52.649Z,17.33
2022-11-13T05:52:39.983Z,14.77
2022-11-13T05:55:26.823Z,21.03
2022-11-13T05:58:13.884Z,17.57
2022-11-13T06:01:10.141Z,16.27
2022-11-13T06:04:00.178Z,15.20
2022-11-13T06:06:47.288Z,19.83
2022-11-13T06:09:34.409Z,15.97
2022-11-13T06:12:21.231Z,15.50
2022-11-13T06:15:09.356Z,20.00
2022-11-13T06:17:56.240Z,18.87
2022-11-13T06:20:44.899Z,17.67
2022-11-13T06:23:34.716Z,18.60
2022-11-13T06:26:24.668Z,14.93
2022-11-13T06:29:13.967Z,21.73
2022-11-13T06:32:01.022Z,12.90
2022-11-13T06:34:48.336Z,16.37
2022-11-13T06:37:36.725Z,18.13
2022-11-13T06:40:23.878Z,19.20
2022-11-13T06:43:10.982Z,15.87
2022-11-13T06:45:58.769Z,16.23
2022-11-13T06:48:46.100Z,15.10
2022-11-13T06:51:33.950Z,15.13
2022-11-13T06:54:22.536Z,17.83
2022-11-13T06:57:10.264Z,17.83
2022-11-13T06:59:57.529Z,16.67
2022-11-13T07:02:44.216Z,16.07
2022-11-13T07:05:31.300Z,18.83
2022-11-13T07:08:19.645Z,15.97
2022-11-13T07:11:09.127Z,15.00
2022-11-13T07:13:56.138Z,15.57
2022-11-13T07:17:08.026Z,18.73
2022-11-13T07:19:50.311Z,16.13
2022-11-13T07:22:37.465Z,15.43
2022-11-13T07:25:24.348Z,16.73
2022-11-13T07:28:13.654Z,13.27
2022-11-13T07:31:02.226Z,15.77
2022-11-13T07:33:53.123Z,15.40
2022-11-13T07:36:40.042Z,16.70
2022-11-13T07:39:27.156Z,21.40
2022-11-13T07:42:14.579Z,16.93
2022-11-13T07:45:03.167Z,16.00
2022-11-13T07:47:50.344Z,18.10
2022-11-13T07:50:39.443Z,12.93
2022-11-13T07:53:26.516Z,14.40
2022-11-13T07:56:15.672Z,17.40
2022-11-13T07:59:05.942Z,21.27
2022-11-13T08:01:54.533Z,21.13
2022-11-13T08:04:41.919Z,15.17
2022-11-13T08:07:30.693Z,17.80
2022-11-13T08:10:20.232Z,17.13
2022-11-13T08:13:09.824Z,14.43
2022-11-13T08:16:00.370Z,16.13
2022-11-13T08:18:48.969Z,15.90
2022-11-13T08:21:37.238Z,16.93
2022-11-13T08:24:25.127Z,17.30
2022-11-13T08:27:12.202Z,17.13
2022-11-13T08:29:58.990Z,17.40
2022-11-13T08:32:46.538Z,17.20
2022-11-13T08:35:35.093Z,15.80
2022-11-13T08:38:21.892Z,19.47
2022-11-13T08:41:09.838Z,19.33
2022-11-13T08:43:56.749Z,17.33
2022-11-13T08:46:46.806Z,20.37
2022-11-13T08:49:33.479Z,17.70
2022-11-13T08:52:21.908Z,17.47
2022-11-13T08:55:09.299Z,20.87
2022-11-13T08:58:00.412Z,21.50
2022-11-13T09:00:48.089Z,21.97
2022-11-13T09:03:36.356Z,18.53
2022-11-13T09:06:23.786Z,19.90
2022-11-13T09:09:12.566Z,21.17
2022-11-13T09:11:59.722Z,24.23
2022-11-13T09:14:46.702Z,22.90
2022-11-13T09:17:34.745Z,23.27
2022-11-13T09:20:23.107Z,25.70
2022-11-13T09:23:10.851Z,23.27
2022-11-13T09:26:01.999Z,24.67
2022-11-13T09:28:49.247Z,25.53
2022-11-13T09:31:38.483Z,24.33
2022-11-13T09:34:27.722Z,23.03
2022-11-13T09:37:16.421Z,24.83
2022-11-13T09:40:03.360Z,21.90
2022-11-13T09:42:52.315Z,22.60
2022-11-13T09:45:41.996Z,21.07
2022-11-13T09:48:36.821Z,24.93
2022-11-13T09:51:30.346Z,18.83
2022-11-13T09:54:17.499Z,20.63
2022-11-13T09:57:24.694Z,20.77
2022-11-13T10:00:19.166Z,17.53
2022-11-13T10:03:54.176Z,22.17
2022-11-13T10:06:53.528Z,16.20
2022-11-13T10:09:55.455Z,14.43
2022-11-13T10:12:43.114Z,13.53
2022-11-13T10:15:33.112Z,11.70
2022-11-13T10:18:28.124Z,13.00
2022-11-13T10:21:28.291Z,11.00
2022-11-13T10:24:22.173Z,11.07
2022-11-13T10:27:11.462Z,11.97
2022-11-13T10:29:58.774Z,10.30
2022-11-13T10:32:48.036Z,11.53
2022-11-13T10:35:50.435Z,12.10
2022-11-13T10:38:46.289Z,9.73
2022-11-13T10:41:33.438Z,10.20
2022-11-13T10:44:23.231Z,11.47
2022-11-13T10:47:36.122Z,10.23
2022-11-13T10:50:29.886Z,10.20
2022-11-13T10:53:19.197Z,12.47
2022-11-13T10:56:27.740Z,11.17
2022-11-13T10:59:17.436Z,9.37
2022-11-13T11:02:18.067Z,9.53
2022-11-13T11:05:08.626Z,8.27
2022-11-13T11:07:58.540Z,11.03
2022-11-13T11:11:15.707Z,11.77
2022-11-13T11:14:19.220Z,11.70
2022-11-13T11:17:07.244Z,11.57
2022-11-13T11:20:07.764Z,10.10
2022-11-13T11:23:01.370Z,10.23
2022-11-13T11:25:54.900Z,8.93
2022-11-13T11:28:50.533Z,9.30
2022-11-13T11:31:43.397Z,12.00
2022-11-13T11:34:37.808Z,11.23
2022-11-13T11:37:30.037Z,9.90
2022-11-13T11:40:27.944Z,8.80
2022-11-13T11:43:20.940Z,11.30
2022-11-13T11:46:13.534Z,8.40
2022-11-13T11:49:02.565Z,9.07
2022-11-13T11:52:04.719Z,10.20
2022-11-13T11:55:03.480Z,10.30
2022-11-13T11:57:59.919Z,9.17
2022-11-13T12:00:52.517Z,7.73
2022-11-13T12:04:17.388Z,8.90
2022-11-13T12:07:27.426Z,7.20
2022-11-13T12:10:28.954Z,8.50
2022-11-13T12:13:28.480Z,10.30
2022-11-13T12:16:25.576Z,8.30
2022-11-13T12:19:23.794Z,9.00
2022-11-13T12:22:20.717Z,11.07
2022-11-13T12:25:20.441Z,7.73
2022-11-13T12:28:19.826Z,9.90
2022-11-13T12:31:26.171Z,8.60
2022-11-13T12:34:24.138Z,7.63
2022-11-13T12:37:15.425Z,9.77
2022-11-13T12:40:08.690Z,8.97
2022-11-13T12:43:13.981Z,8.50
2022-11-13T12:46:08.170Z,7.83
2022-11-13T12:48:56.822Z,10.40
2022-11-13T12:51:56.408Z,12.30
2022-11-13T12:54:44.389Z,9.33
2022-11-13T12:57:33.008Z,9.13
2022-11-13T13:00:27.537Z,7.30
2022-11-13T13:03:33.629Z,6.57
2022-11-13T13:06:52.048Z,7.43
2022-11-13T13:10:01.100Z,7.13
2022-11-13T13:13:00.566Z,8.27
2022-11-13T13:15:56.928Z,7.77
2022-11-13T13:18:44.079Z,10.50
2022-11-13T13:21:42.984Z,6.97
2022-11-13T13:24:34.594Z,8.60
2022-11-13T13:27:27.447Z,6.70
2022-11-13T13:30:21.184Z,7.23
2022-11-13T13:33:23.256Z,7.23
2022-11-13T13:36:25.705Z,8.40
2022-11-13T13:39:35.584Z,8.63
2022-11-13T13:42:41.949Z,7.40
2022-11-13T13:45:42.358Z,8.77
2022-11-13T13:48:32.172Z,6.70
2022-11-13T13:51:28.336Z,6.73
2022-11-13T13:54:26.209Z,6.63
2022-11-13T13:57:17.139Z,7.83
2022-11-13T14:00:04.822Z,7.57
2022-11-13T14:02:54.346Z,5.63
2022-11-13T14:05:41.811Z,6.20
2022-11-13T14:08:30.100Z,8.30
2022-11-13T14:11:27.143Z,8.03
2022-11-13T14:14:21.505Z,11.00
2022-11-13T14:17:11.217Z,10.50
2022-11-13T14:20:01.037Z,10.97
2022-11-13T14:22:56.344Z,10.37
2022-11-13T14:25:45.780Z,15.73
2022-11-13T14:28:44.008Z,10.97
2022-11-13T14:31:34.993Z,11.60
2022-11-13T14:34:24.782Z,12.10
2022-11-13T14:37:24.800Z,11.53
2022-11-13T14:40:23.954Z,12.00
2022-11-13T14:43:21.046Z,10.40
2022-11-13T14:46:37.353Z,11.40
2022-11-13T14:49:29.972Z,9.87
2022-11-13T14:52:24.289Z,11.03
2022-11-13T14:55:24.294Z,10.87
2022-11-13T14:58:14.887Z,12.50
2022-11-13T15:01:17.133Z,14.27
2022-11-13T15:04:04.067Z,12.17
2022-11-13T15:06:55.544Z,13.70
2022-11-13T15:09:42.782Z,16.57
2022-11-13T15:12:29.743Z,11.23
2022-11-13T15:15:20.495Z,11.27
2022-11-13T15:18:16.397Z,12.13
2022-11-13T15:21:03.742Z,12.67
2022-11-13T15:23:52.239Z,13.80
2022-11-13T15:26:39.860Z,13.87
2022-11-13T15:29:27.105Z,13.30
2022-11-13T15:32:16.020Z,11.13
2022-11-13T15:35:05.202Z,12.40
2022-11-13T15:37:54.620Z,15.40
2022-11-13T15:40:41.894Z,15.00
2022-11-13T15:43:29.393Z,12.80
2022-11-13T15:46:18.777Z,15.03
2022-11-13T15:49:05.616Z,16.27
2022-11-13T15:51:54.471Z,14.30
2022-11-13T15:54:41.263Z,12.73
2022-11-13T15:57:30.883Z,15.17
2022-11-13T16:00:21.396Z,14.40
2022-11-13T16:03:11.782Z,13.93
2022-11-13T16:05:59.889Z,14.10
2022-11-13T16:08:48.324Z,15.87
2022-11-13T16:11:36.283Z,12.53
2022-11-13T16:14:25.123Z,16.67
2022-11-13T16:17:16.504Z,23.20
2022-11-13T16:20:04.265Z,17.53
2022-11-13T16:22:51.653Z,15.90
2022-11-13T16:25:40.157Z,15.80
2022-11-13T16:28:29.387Z,13.30
2022-11-13T16:31:18.812Z,13.50
2022-11-13T16:34:05.545Z,15.53
2022-11-13T16:36:52.879Z,16.80
2022-11-13T16:39:39.791Z,15.73
2022-11-13T16:42:30.914Z,13.90
2022-11-13T16:45:18.608Z,16.37
2022-11-13T16:48:06.397Z,17.40
2022-11-13T16:50:53.952Z,13.90
2022-11-13T16:53:41.733Z,15.20
2022-11-13T16:56:30.703Z,14.33
2022-11-13T16:59:20.362Z,12.77
2022-11-13T17:02:17.275Z,16.07
2022-11-13T17:05:05.428Z,13.53
2022-11-13T17:07:58.021Z,15.53
2022-11-13T17:10:45.390Z,16.37
2022-11-13T17:13:32.824Z,15.47
2022-11-13T17:16:22.480Z,15.53
2022-11-13T17:19:13.686Z,12.17
2022-11-13T17:22:09.289Z,16.37
2022-11-13T17:25:00.688Z,14.67
2022-11-13T17:27:48.227Z,16.60
2022-11-13T17:30:35.526Z,17.63
2022-11-13T17:33:23.923Z,18.10
2022-11-13T17:36:12.000Z,17.87
2022-11-13T17:38:59.701Z,18.60
2022-11-13T17:41:46.970Z,16.53
2022-11-13T17:44:34.419Z,25.10
2022-11-13T17:47:24.007Z,22.23
2022-11-13T17:50:12.642Z,22.07
2022-11-13T17:53:00.313Z,22.53
2022-11-13T17:55:55.405Z,27.23
2022-11-13T17:58:47.614Z,31.00
2022-11-13T18:01:34.750Z,30.33
2022-11-13T18:04:22.218Z,27.93
2022-11-13T18:07:11.910Z,27.27
2022-11-13T18:10:01.834Z,26.73
2022-11-13T18:12:50.997Z,23.30
2022-11-13T18:15:39.202Z,30.17
2022-11-13T18:18:26.106Z,25.33
2022-11-13T18:21:23.735Z,28.03
2022-11-13T18:24:17.253Z,26.43
2022-11-13T18:27:06.211Z,26.17
2022-11-13T18:29:53.407Z,22.10
2022-11-13T18:32:40.677Z,27.47
2022-11-13T18:35:27.769Z,22.80
2022-11-13T18:38:15.176Z,17.50
2022-11-13T18:41:06.785Z,19.10
2022-11-13T18:43:54.538Z,17.67
2022-11-13T18:46:41.938Z,21.67
2022-11-13T18:49:29.220Z,23.00
2022-11-13T18:52:16.892Z,16.93
2022-11-13T18:55:04.348Z,21.73
2022-11-13T18:57:52.597Z,17.87
2022-11-13T19:00:39.774Z,18.47
2022-11-13T19:03:27.155Z,16.67
2022-11-13T19:06:16.250Z,17.40
2022-11-13T19:09:09.259Z,18.30
2022-11-13T19:11:59.056Z,22.57
2022-11-13T19:14:49.655Z,21.60
2022-11-13T19:17:37.002Z,15.57
2022-11-13T19:20:27.183Z,18.40
2022-11-13T19:23:15.207Z,20.63
2022-11-13T19:26:02.518Z,19.60
2022-11-13T19:28:52.799Z,16.07
2022-11-13T19:31:41.798Z,16.57
2022-11-13T19:34:29.305Z,19.40
2022-11-13T19:37:19.189Z,17.87
2022-11-13T19:40:08.245Z,16.40
2022-11-13T19:42:55.584Z,15.93
2022-11-13T19:45:42.712Z,17.40
2022-11-13T19:48:31.869Z,16.80
2022-11-13T19:51:21.248Z,17.17
2022-11-13T19:54:09.016Z,19.40
2022-11-13T19:56:56.031Z,18.60
2022-11-13T19:59:43.505Z,24.53
2022-11-13T20:02:30.994Z,21.10
2022-11-13T20:05:19.546Z,24.07
2022-11-13T20:08:06.876Z,18.30
2022-11-13T20:10:57.465Z,22.53
2022-11-13T20:13:46.516Z,18.40
2022-11-13T20:16:34.047Z,24.20
2022-11-13T20:19:21.794Z,21.67
2022-11-13T20:22:19.700Z,22.03
2022-11-13T20:25:07.927Z,23.23
2022-11-13T20:27:55.093Z,30.77
2022-11-13T20:30:43.069Z,27.77
2022-11-13T20:33:33.191Z,30.57
2022-11-13T20:36:20.942Z,28.03
2022-11-13T20:39:12.099Z,20.63
2022-11-13T20:42:01.363Z,24.87
2022-11-13T20:44:48.264Z,23.83
2022-11-13T20:47:35.651Z,25.03
2022-11-13T20:50:22.994Z,22.73
2022-11-13T20:53:09.995Z,21.00
2022-11-13T20:56:01.355Z,21.63
2022-11-13T20:58:49.187Z,20.53
2022-11-13T21:01:37.244Z,19.73
2022-11-13T21:04:24.254Z,21.77
2022-11-13T21:07:14.277Z,23.50
2022-11-13T21:10:02.086Z,25.10
2022-11-13T21:12:50.836Z,20.27
2022-11-13T21:15:39.301Z,22.63
2022-11-13T21:18:26.956Z,21.90
2022-11-13T21:21:18.848Z,24.83
2022-11-13T21:24:07.870Z,19.10
2022-11-13T21:26:55.240Z,19.40
2022-11-13T21:29:43.675Z,23.73
2022-11-13T21:32:30.800Z,24.50
2022-11-13T21:35:22.309Z,22.50
2022-11-13T21:38:09.922Z,19.63
2022-11-13T21:41:14.489Z,20.90
2022-11-13T21:44:04.784Z,22.37
2022-11-13T21:46:58.646Z,27.50
2022-11-13T21:49:45.543Z,24.53
2022-11-13T21:52:33.042Z,21.47
2022-11-13T21:55:21.690Z,22.33
2022-11-13T21:58:08.760Z,26.53
2022-11-13T22:00:55.530Z,22.17
2022-11-13T22:03:43.947Z,25.10
2022-11-13T22:06:33.038Z,26.90
2022-11-13T22:09:22.391Z,26.30
2022-11-13T22:12:10.454Z,23.20
2022-11-13T22:15:02.332Z,26.30
2022-11-13T22:17:49.211Z,21.43
2022-11-13T22:20:37.189Z,23.27
2022-11-13T22:23:24.867Z,28.30
2022-11-13T22:26:14.268Z,27.10
2022-11-13T22:29:04.301Z,25.20
2022-11-13T22:31:51.532Z,28.03
2022-11-13T22:34:38.417Z,27.80
2022-11-13T22:37:26.943Z,25.40
2022-11-13T22:40:15.181Z,25.07
2022-11-13T22:43:02.322Z,24.80
2022-11-13T22:45:49.339Z,22.17
2022-11-13T22:48:38.115Z,25.57
2022-11-13T22:51:27.609Z,23.00
2022-11-13T22:54:16.375Z,23.40
2022-11-13T22:57:04.227Z,25.50
2022-11-13T22:59:51.618Z,26.17
2022-11-13T23:02:43.051Z,21.60
2022-11-13T23:05:35.550Z,24.17
2022-11-13T23:08:22.581Z,27.80
2022-11-13T23:11:14.667Z,26.93
2022-11-13T23:14:05.638Z,26.47
2022-11-13T23:16:52.790Z,24.43
2022-11-13T23:19:39.693Z,24.67
2022-11-13T23:22:26.781Z,32.30
2022-11-13T23:25:14.027Z,25.37
2022-11-13T23:28:02.779Z,24.30
2022-11-13T23:30:49.973Z,26.67
2022-11-13T23:33:38.364Z,21.67
2022-11-13T23:36:25.159Z,25.67
2022-11-13T23:39:12.435Z,22.43
2022-11-13T23:41:59.895Z,21.13
2022-11-13T23:44:48.098Z,23.20
2022-11-13T23:47:36.793Z,22.80
2022-11-13T23:50:24.036Z,23.83
2022-11-13T23:53:11.471Z,24.83
2022-11-13T23:55:59.869Z,21.73
2022-11-13T23:58:46.535Z,24.93
